createdAt,value
2022-11-17T00:01:21.767Z,7.57
2022-11-17T00:03:49.445Z,5.80
2022-11-17T00:06:17.618Z,3.25
2022-11-17T00:08:44.188Z,7.30
2022-11-17T00:11:10.754Z,6.53
2022-11-17T00:13:55.969Z,6.63
2022-11-17T00:16:22.753Z,4.30
2022-11-17T00:19:07.853Z,6.05
2022-11-17T00:21:34.777Z,9.13
2022-11-17T00:24:01.354Z,7.28
2022-11-17T00:26:30.550Z,12.52
2022-11-17T00:29:02.128Z,12.32
2022-11-17T00:31:48.779Z,6.40
2022-11-17T00:34:23.305Z,10.15
2022-11-17T00:36:51.902Z,11.45
2022-11-17T00:39:20.738Z,5.15
2022-11-17T00:41:47.663Z,7.53
2022-11-17T00:44:14.854Z,6.70
2022-11-17T00:46:42.144Z,6.15
2022-11-17T00:49:10.715Z,5.95
2022-11-17T00:51:38.030Z,13.20
2022-11-17T00:54:06.181Z,4.60
2022-11-17T00:56:32.775Z,10.55
2022-11-17T00:58:59.795Z,5.25
2022-11-17T01:01:26.563Z,6.20
2022-11-17T01:04:03.306Z,6.97
2022-11-17T01:06:33.016Z,3.35
2022-11-17T01:09:06.212Z,5.53
2022-11-17T01:11:32.850Z,11.07
2022-11-17T01:14:00.756Z,4.10
2022-11-17T01:16:29.097Z,8.23
2022-11-17T01:18:55.786Z,6.38
2022-11-17T01:21:26.747Z,6.68
2022-11-17T01:23:55.560Z,10.25
2022-11-17T01:26:24.980Z,4.57
2022-11-17T01:28:52.543Z,8.52
2022-11-17T01:31:25.240Z,5.55
2022-11-17T01:33:52.383Z,7.78
2022-11-17T01:36:31.360Z,7.60
2022-11-17T01:38:57.880Z,6.57
2022-11-17T01:41:27.331Z,10.95
2022-11-17T01:43:59.679Z,7.68
2022-11-17T01:46:33.548Z,5.53
2022-11-17T01:49:11.209Z,7.57
2022-11-17T01:51:42.302Z,5.70
2022-11-17T01:54:11.357Z,6.68
2022-11-17T01:56:44.442Z,4.80
2022-11-17T01:59:17.863Z,8.52
2022-11-17T02:01:55.895Z,5.32
2022-11-17T02:04:30.439Z,6.47
2022-11-17T02:09:43.948Z,6.30
2022-11-17T02:12:13.246Z,6.60
2022-11-17T02:14:40.686Z,5.30
2022-11-17T02:17:14.032Z,8.10
2022-11-17T02:19:43.311Z,6.90
2022-11-17T02:22:48.280Z,7.82
2022-11-17T02:25:49.607Z,8.27
2022-11-17T02:28:25.978Z,10.02
2022-11-17T02:30:59.014Z,4.38
2022-11-17T02:33:38.772Z,5.70
2022-11-17T02:36:28.665Z,7.95
2022-11-17T02:38:59.610Z,7.70
2022-11-17T02:41:43.222Z,4.10
2022-11-17T02:44:28.750Z,8.95
2022-11-17T02:47:10.045Z,5.05
2022-11-17T02:49:41.632Z,6.18
2022-11-17T02:52:09.187Z,4.15
2022-11-17T02:54:35.860Z,4.53
2022-11-17T02:57:02.376Z,6.18
2022-11-17T02:59:37.283Z,4.47
2022-11-17T03:02:25.222Z,7.75
2022-11-17T03:05:04.460Z,4.85
2022-11-17T03:08:15.368Z,12.73
2022-11-17T03:10:59.846Z,5.53
2022-11-17T03:13:40.400Z,4.90
2022-11-17T03:16:13.272Z,10.35
2022-11-17T03:18:45.510Z,5.25
2022-11-17T03:21:23.119Z,6.47
2022-11-17T03:23:58.789Z,4.38
2022-11-17T03:26:32.441Z,4.78
2022-11-17T03:29:01.908Z,6.82
2022-11-17T03:31:31.317Z,3.25
2022-11-17T03:33:58.953Z,5.93
2022-11-17T03:36:39.664Z,4.60
2022-11-17T03:39:13.341Z,5.00
2022-11-17T03:41:44.775Z,8.30
2022-11-17T03:44:15.148Z,6.68
2022-11-17T03:46:43.919Z,6.53
2022-11-17T03:49:57.001Z,5.70
2022-11-17T03:52:25.206Z,3.38
2022-11-17T03:54:53.041Z,6.68
2022-11-17T03:58:13.155Z,5.65
2022-11-17T04:00:41.933Z,4.10
2022-11-17T04:03:08.478Z,6.50
2022-11-17T04:05:34.972Z,11.30
2022-11-17T04:08:01.482Z,4.43
2022-11-17T04:10:28.207Z,7.32
2022-11-17T04:13:13.565Z,9.48
2022-11-17T04:15:59.352Z,5.93
2022-11-17T04:18:27.028Z,10.90
2022-11-17T04:20:56.807Z,7.97
2022-11-17T04:23:24.755Z,8.88
2022-11-17T04:26:12.420Z,8.43
2022-11-17T04:28:48.973Z,5.95
2022-11-17T04:31:22.657Z,8.07
2022-11-17T04:33:53.470Z,6.18
2022-11-17T04:36:22.708Z,10.68
2022-11-17T04:38:51.337Z,9.30
2022-11-17T04:41:38.374Z,11.40
2022-11-17T04:44:06.344Z,7.82
2022-11-17T04:46:34.621Z,9.77
2022-11-17T04:49:01.909Z,17.67
2022-11-17T04:51:29.847Z,10.18
2022-11-17T04:53:57.090Z,14.57
2022-11-17T04:56:24.755Z,15.65
2022-11-17T04:58:51.371Z,13.15
2022-11-17T05:01:19.426Z,13.70
2022-11-17T05:03:53.163Z,11.90
2022-11-17T05:06:25.218Z,15.30
2022-11-17T05:08:55.914Z,14.30
2022-11-17T05:11:42.801Z,10.63
2022-11-17T05:14:09.827Z,13.65
2022-11-17T05:16:54.884Z,11.70
2022-11-17T05:19:23.756Z,15.50
2022-11-17T05:21:50.773Z,9.68
2022-11-17T05:24:18.070Z,10.90
2022-11-17T05:26:46.841Z,10.95
2022-11-17T05:29:15.562Z,14.52
2022-11-17T05:31:43.956Z,11.60
2022-11-17T05:34:15.185Z,13.38
2022-11-17T05:36:41.935Z,11.60
2022-11-17T05:39:09.478Z,20.48
2022-11-17T05:41:37.238Z,12.55
2022-11-17T05:44:04.832Z,13.38
2022-11-17T05:46:31.376Z,14.15
2022-11-17T05:48:58.296Z,9.80
2022-11-17T05:51:25.495Z,10.32
2022-11-17T05:53:52.468Z,7.13
2022-11-17T05:56:49.711Z,14.98
2022-11-17T05:59:28.458Z,10.82
2022-11-17T06:02:03.861Z,11.73
2022-11-17T06:04:31.130Z,15.90
2022-11-17T06:06:59.475Z,18.00
2022-11-17T06:09:28.755Z,14.05
2022-11-17T06:11:56.195Z,15.07
2022-11-17T06:14:25.229Z,16.30
2022-11-17T06:16:56.520Z,13.60
2022-11-17T06:19:30.463Z,15.95
2022-11-17T06:22:11.590Z,17.92
2022-11-17T06:24:39.892Z,13.13
2022-11-17T06:27:06.629Z,18.92
2022-11-17T06:29:33.202Z,18.58
2022-11-17T06:32:00.305Z,16.75
2022-11-17T06:34:27.774Z,21.83
2022-11-17T06:36:55.938Z,24.08
2022-11-17T06:39:22.401Z,15.52
2022-11-17T06:41:48.938Z,21.92
2022-11-17T06:44:15.419Z,20.67
2022-11-17T06:46:47.626Z,24.63
2022-11-17T06:49:15.447Z,26.50
2022-11-17T06:51:45.144Z,32.45
2022-11-17T06:54:14.495Z,18.48
2022-11-17T06:56:41.346Z,19.65
2022-11-17T06:59:07.917Z,20.30
2022-11-17T07:01:34.516Z,22.08
2022-11-17T07:04:01.033Z,20.10
2022-11-17T07:06:27.564Z,20.63
2022-11-17T07:08:54.286Z,22.20
2022-11-17T07:11:20.943Z,21.05
2022-11-17T07:13:47.483Z,14.63
2022-11-17T07:16:22.925Z,17.85
2022-11-17T07:18:51.587Z,15.93
2022-11-17T07:21:18.499Z,22.55
2022-11-17T07:23:45.925Z,24.67
2022-11-17T07:26:13.014Z,21.13
2022-11-17T07:28:39.633Z,16.85
2022-11-17T07:31:08.259Z,28.95
2022-11-17T07:33:35.279Z,24.50
2022-11-17T07:36:06.599Z,25.00
2022-11-17T07:38:34.777Z,27.98
2022-11-17T07:41:02.619Z,19.98
2022-11-17T07:43:29.846Z,22.08
2022-11-17T07:45:57.021Z,22.55
2022-11-17T07:48:23.564Z,23.98
2022-11-17T07:50:50.292Z,24.48
2022-11-17T07:53:16.924Z,30.40
2022-11-17T07:55:43.500Z,25.08
2022-11-17T07:58:10.108Z,27.20
2022-11-17T08:00:36.848Z,27.40
2022-11-17T08:03:04.929Z,30.50
2022-11-17T08:05:41.825Z,22.75
2022-11-17T08:08:10.271Z,32.08
2022-11-17T08:10:36.960Z,27.30
2022-11-17T08:13:03.923Z,31.85
2022-11-17T08:15:31.749Z,27.40
2022-11-17T08:18:01.217Z,30.20
2022-11-17T08:20:29.466Z,37.40
2022-11-17T08:22:56.811Z,29.13
2022-11-17T08:25:26.389Z,32.67
2022-11-17T08:27:57.940Z,27.85
2022-11-17T08:30:26.325Z,27.83
2022-11-17T08:32:54.542Z,32.15
2022-11-17T08:35:23.651Z,33.08
2022-11-17T08:37:50.322Z,39.17
2022-11-17T08:40:18.316Z,33.72
2022-11-17T08:42:45.411Z,32.53
2022-11-17T08:45:12.655Z,39.80
2022-11-17T08:47:39.260Z,34.35
2022-11-17T08:50:06.763Z,46.85
2022-11-17T08:52:33.761Z,42.20
2022-11-17T08:55:00.645Z,39.33
2022-11-17T08:57:29.907Z,23.50
2022-11-17T08:59:56.627Z,36.30
2022-11-17T09:02:23.279Z,35.08
2022-11-17T09:04:50.629Z,29.67
2022-11-17T09:07:17.833Z,29.05
2022-11-17T09:09:46.178Z,34.42
2022-11-17T09:12:12.784Z,28.83
2022-11-17T09:14:39.500Z,37.38
2022-11-17T09:17:06.366Z,30.98
2022-11-17T09:19:33.724Z,25.50
2022-11-17T09:22:00.273Z,31.95
2022-11-17T09:24:26.971Z,31.65
2022-11-17T09:26:54.730Z,32.97
2022-11-17T09:29:21.790Z,34.05
2022-11-17T09:31:48.371Z,35.47
2022-11-17T09:34:15.524Z,38.35
2022-11-17T09:36:42.333Z,33.03
2022-11-17T09:39:09.088Z,32.35
2022-11-17T09:41:46.761Z,38.13
2022-11-17T09:44:31.165Z,33.47
2022-11-17T09:47:16.513Z,34.95
2022-11-17T09:49:58.647Z,30.95
2022-11-17T09:52:32.425Z,36.17
2022-11-17T09:55:07.802Z,35.50
2022-11-17T09:57:41.178Z,26.00
2022-11-17T10:00:10.903Z,36.70
2022-11-17T10:02:37.531Z,40.05
2022-11-17T10:05:04.338Z,32.10
2022-11-17T10:07:34.996Z,42.17
2022-11-17T10:10:03.571Z,29.35
2022-11-17T10:12:41.786Z,39.80
2022-11-17T10:15:24.325Z,36.53
2022-11-17T10:17:50.933Z,34.78
2022-11-17T10:20:20.924Z,34.65
2022-11-17T10:22:48.188Z,41.25
2022-11-17T10:25:23.957Z,31.63
2022-11-17T10:27:54.102Z,34.22
2022-11-17T10:30:24.308Z,31.48
2022-11-17T10:32:52.056Z,35.63
2022-11-17T10:35:19.917Z,29.45
2022-11-17T10:37:55.439Z,37.28
2022-11-17T10:40:26.171Z,27.70
2022-11-17T10:43:04.962Z,40.42
2022-11-17T10:45:32.535Z,36.70
2022-11-17T10:48:32.912Z,29.38
2022-11-17T10:51:11.184Z,26.48
2022-11-17T10:53:45.546Z,29.13
2022-11-17T10:56:21.665Z,32.22
2022-11-17T10:59:09.628Z,39.00
2022-11-17T11:01:39.161Z,33.67
2022-11-17T11:04:08.053Z,43.58
2022-11-17T11:06:35.610Z,33.13
2022-11-17T11:09:10.521Z,42.92
2022-11-17T11:11:41.538Z,29.05
2022-11-17T11:14:33.471Z,27.85
2022-11-17T11:17:10.615Z,32.55
2022-11-17T11:19:37.950Z,25.10
2022-11-17T11:22:33.872Z,37.90
2022-11-17T11:25:12.530Z,35.85
2022-11-17T11:27:47.955Z,38.25
2022-11-17T11:30:19.389Z,40.13
2022-11-17T11:33:01.201Z,29.77
2022-11-17T11:35:34.626Z,29.33
2022-11-17T11:38:23.391Z,29.40
2022-11-17T11:41:07.578Z,34.80
2022-11-17T11:43:59.969Z,31.92
2022-11-17T11:46:55.725Z,31.30
2022-11-17T11:49:22.195Z,39.40
2022-11-17T11:51:50.409Z,33.17
2022-11-17T11:54:30.878Z,42.83
2022-11-17T11:56:57.674Z,40.33
2022-11-17T11:59:50.722Z,42.33
2022-11-17T12:02:43.544Z,28.92
2022-11-17T12:05:19.229Z,31.00
2022-11-17T12:08:11.077Z,35.92
2022-11-17T12:11:31.422Z,32.63
2022-11-17T12:13:59.684Z,37.72
2022-11-17T12:16:36.161Z,30.17
2022-11-17T12:19:23.088Z,29.33
2022-11-17T12:21:55.379Z,37.65
2022-11-17T12:24:33.500Z,33.63
2022-11-17T12:27:34.896Z,32.22
2022-11-17T12:30:04.293Z,36.55
2022-11-17T12:32:49.141Z,36.33
2022-11-17T12:35:33.635Z,28.58
2022-11-17T12:38:23.501Z,36.47
2022-11-17T12:40:51.982Z,35.65
2022-11-17T12:43:25.353Z,37.13
2022-11-17T12:46:25.383Z,38.17
2022-11-17T12:49:03.237Z,38.67
2022-11-17T12:51:56.347Z,27.95
2022-11-17T12:54:47.845Z,31.60
2022-11-17T12:57:26.399Z,36.00
2022-11-17T13:00:23.175Z,32.03
2022-11-17T13:03:15.348Z,25.70
2022-11-17T13:05:42.316Z,30.98
2022-11-17T13:08:22.183Z,30.95
2022-11-17T13:10:49.346Z,29.63
2022-11-17T13:13:23.592Z,27.23
2022-11-17T13:18:36.457Z,31.63
2022-11-17T13:21:04.055Z,32.78
2022-11-17T13:23:32.878Z,37.13
2022-11-17T13:26:20.020Z,29.85
2022-11-17T13:28:47.770Z,30.83
2022-11-17T13:31:24.080Z,29.55
2022-11-17T13:34:04.588Z,36.90
2022-11-17T13:36:31.189Z,29.38
2022-11-17T13:39:00.520Z,26.65
2022-11-17T13:41:38.236Z,37.30
2022-11-17T13:44:08.553Z,29.98
2022-11-17T13:46:36.170Z,30.02
2022-11-17T13:49:35.703Z,30.20
2022-11-17T13:52:03.786Z,27.90
2022-11-17T13:54:30.751Z,25.30
2022-11-17T13:57:06.122Z,27.08
2022-11-17T13:59:35.299Z,27.63
2022-11-17T14:02:17.316Z,27.30
2022-11-17T14:05:14.214Z,31.42
2022-11-17T14:07:42.564Z,33.92
2022-11-17T14:10:12.930Z,28.13
2022-11-17T14:12:39.668Z,31.15
2022-11-17T14:15:24.523Z,22.65
2022-11-17T14:17:53.356Z,31.58
2022-11-17T14:20:25.883Z,34.72
2022-11-17T14:23:10.461Z,27.00
2022-11-17T14:28:15.805Z,35.40
2022-11-17T14:30:42.454Z,45.88
2022-11-17T14:33:13.347Z,29.65
2022-11-17T14:35:40.700Z,26.73
2022-11-17T14:38:10.496Z,32.60
2022-11-17T14:40:37.045Z,35.20
2022-11-17T14:43:03.576Z,31.35
2022-11-17T14:45:30.792Z,33.85
2022-11-17T14:47:57.347Z,32.42
2022-11-17T14:50:23.848Z,25.98
2022-11-17T14:52:50.413Z,30.48
2022-11-17T14:55:17.100Z,35.30
2022-11-17T14:57:43.786Z,27.05
2022-11-17T15:00:15.829Z,30.58
2022-11-17T15:02:45.941Z,28.00
2022-11-17T15:05:12.887Z,29.98
2022-11-17T15:07:39.515Z,20.35
2022-11-17T15:10:07.257Z,25.38
2022-11-17T15:12:34.317Z,28.00
2022-11-17T15:15:00.820Z,30.25
2022-11-17T15:17:28.034Z,22.52
2022-11-17T15:19:55.222Z,21.42
2022-11-17T15:22:21.767Z,25.45
2022-11-17T15:24:48.306Z,28.08
2022-11-17T15:27:15.277Z,31.88
2022-11-17T15:29:41.966Z,29.02
2022-11-17T15:32:08.491Z,23.42
2022-11-17T15:34:38.052Z,25.45
2022-11-17T15:37:05.456Z,24.95
2022-11-17T15:39:31.957Z,28.85
2022-11-17T15:41:58.509Z,26.30
2022-11-17T15:44:25.114Z,23.17
2022-11-17T15:46:51.974Z,23.17
2022-11-17T15:49:18.940Z,25.23
2022-11-17T15:51:45.676Z,30.15
2022-11-17T15:54:19.639Z,29.25
2022-11-17T15:56:47.369Z,30.80
2022-11-17T15:59:14.603Z,27.20
2022-11-17T16:01:41.691Z,23.80
2022-11-17T16:04:10.706Z,25.10
2022-11-17T16:06:39.299Z,25.08
2022-11-17T16:09:09.203Z,21.63
2022-11-17T16:11:36.587Z,27.45
2022-11-17T16:14:04.200Z,21.63
2022-11-17T16:16:33.240Z,29.30
2022-11-17T16:19:00.044Z,28.80
2022-11-17T16:21:27.057Z,26.02
2022-11-17T16:23:56.442Z,21.75
2022-11-17T16:26:26.177Z,18.50
2022-11-17T16:28:57.335Z,23.17
2022-11-17T16:31:25.607Z,19.98
2022-11-17T16:33:55.851Z,21.27
2022-11-17T16:36:24.630Z,19.30
2022-11-17T16:39:01.964Z,26.23
2022-11-17T16:41:32.390Z,21.45
2022-11-17T16:43:59.804Z,17.58
2022-11-17T16:46:29.208Z,22.27
2022-11-17T16:48:57.050Z,21.85
2022-11-17T16:51:23.710Z,16.50
2022-11-17T16:53:58.499Z,18.38
2022-11-17T16:56:25.216Z,25.20
2022-11-17T16:58:52.245Z,15.77
2022-11-17T17:01:21.698Z,26.10
2022-11-17T17:03:48.275Z,15.50
2022-11-17T17:06:17.604Z,25.38
2022-11-17T17:08:44.818Z,28.25
2022-11-17T17:11:15.878Z,37.60
2022-11-17T17:13:42.755Z,25.58
2022-11-17T17:16:13.799Z,28.85
2022-11-17T17:18:41.112Z,25.02
2022-11-17T17:21:12.915Z,22.33
2022-11-17T17:23:39.407Z,27.75
2022-11-17T17:26:16.655Z,30.48
2022-11-17T17:28:47.326Z,31.13
2022-11-17T17:31:21.076Z,24.50
2022-11-17T17:33:50.645Z,25.27
2022-11-17T17:36:20.260Z,24.05
2022-11-17T17:38:53.293Z,20.92
2022-11-17T17:41:23.367Z,23.38
2022-11-17T17:43:56.451Z,19.58
2022-11-17T17:46:22.947Z,26.77
2022-11-17T17:48:49.559Z,21.45
2022-11-17T17:51:23.832Z,28.85
2022-11-17T17:53:51.476Z,21.17
2022-11-17T17:56:20.318Z,28.90
2022-11-17T17:58:48.865Z,25.88
2022-11-17T18:01:15.372Z,23.33
2022-11-17T18:03:45.680Z,24.85
2022-11-17T18:06:13.321Z,21.58
2022-11-17T18:08:39.961Z,24.83
2022-11-17T18:11:09.945Z,25.10
2022-11-17T18:13:38.972Z,31.35
2022-11-17T18:16:10.544Z,30.35
2022-11-17T18:18:37.775Z,23.73
2022-11-17T18:21:15.134Z,22.20
2022-11-17T18:23:44.718Z,31.40
2022-11-17T18:26:23.320Z,23.73
2022-11-17T18:28:55.356Z,38.25
2022-11-17T18:31:24.145Z,37.03
2022-11-17T18:33:52.557Z,32.47
2022-11-17T18:36:20.199Z,33.17
2022-11-17T18:38:47.613Z,38.38
2022-11-17T18:41:16.526Z,27.33
2022-11-17T18:43:44.126Z,34.15
2022-11-17T18:46:16.171Z,35.33
2022-11-17T18:48:44.427Z,31.55
2022-11-17T18:51:21.429Z,31.42
2022-11-17T18:53:53.172Z,28.33
2022-11-17T18:56:28.635Z,23.70
2022-11-17T18:58:55.378Z,32.55
2022-11-17T19:01:24.080Z,21.33
2022-11-17T19:03:53.540Z,29.02
2022-11-17T19:06:22.752Z,23.63
2022-11-17T19:08:50.174Z,22.40
2022-11-17T19:11:18.216Z,20.45
2022-11-17T19:13:45.856Z,20.15
2022-11-17T19:16:24.285Z,22.63
2022-11-17T19:18:53.479Z,23.83
2022-11-17T19:21:26.067Z,14.85
2022-11-17T19:23:54.655Z,16.95
2022-11-17T19:26:29.989Z,11.88
2022-11-17T19:28:58.182Z,9.60
2022-11-17T19:31:25.571Z,14.70
2022-11-17T19:33:53.160Z,10.13
2022-11-17T19:36:25.063Z,15.43
2022-11-17T19:38:53.574Z,8.60
2022-11-17T19:41:26.802Z,9.73
2022-11-17T19:43:58.105Z,12.02
2022-11-17T19:46:26.422Z,15.45
2022-11-17T19:48:53.084Z,8.85
2022-11-17T19:51:25.132Z,14.20
2022-11-17T19:53:54.201Z,12.02
2022-11-17T19:56:22.203Z,15.60
2022-11-17T19:58:50.325Z,10.32
2022-11-17T20:01:20.412Z,10.48
2022-11-17T20:03:47.645Z,8.85
2022-11-17T20:06:17.264Z,14.68
2022-11-17T20:08:44.223Z,12.60
2022-11-17T20:11:16.740Z,7.28
2022-11-17T20:13:44.090Z,11.82
2022-11-17T20:16:16.477Z,15.38
2022-11-17T20:18:44.715Z,12.25
2022-11-17T20:21:14.034Z,12.73
2022-11-17T20:23:41.992Z,11.93
2022-11-17T20:26:12.706Z,10.90
2022-11-17T20:28:39.378Z,13.73
2022-11-17T20:31:13.507Z,14.73
2022-11-17T20:33:41.556Z,14.00
2022-11-17T20:36:10.906Z,7.10
2022-11-17T20:38:37.616Z,13.45
2022-11-17T20:41:04.978Z,12.88
2022-11-17T20:43:32.567Z,12.77
2022-11-17T20:45:59.232Z,15.30
2022-11-17T20:48:27.455Z,13.13
2022-11-17T20:51:01.525Z,13.40
2022-11-17T20:53:28.921Z,17.23
2022-11-17T20:55:57.610Z,10.18
2022-11-17T20:58:25.299Z,10.52
2022-11-17T21:00:52.738Z,13.30
2022-11-17T21:03:20.426Z,10.80
2022-11-17T21:05:59.199Z,15.52
2022-11-17T21:08:37.322Z,8.57
2022-11-17T21:11:09.239Z,16.75
2022-11-17T21:13:37.226Z,14.57
2022-11-17T21:16:14.957Z,12.25
2022-11-17T21:18:48.500Z,13.75
2022-11-17T21:21:15.723Z,14.83
2022-11-17T21:23:43.997Z,10.32
2022-11-17T21:26:13.066Z,12.30
2022-11-17T21:28:41.053Z,15.63
2022-11-17T21:31:14.381Z,13.82
2022-11-17T21:33:41.698Z,9.75
2022-11-17T21:36:16.402Z,13.18
2022-11-17T21:38:44.877Z,13.02
2022-11-17T21:41:16.271Z,11.40
2022-11-17T21:43:44.090Z,9.30
2022-11-17T21:46:14.665Z,11.43
2022-11-17T21:48:41.942Z,18.27
2022-11-17T21:51:15.906Z,10.52
2022-11-17T21:53:43.186Z,11.50
2022-11-17T21:56:10.240Z,14.30
2022-11-17T21:58:37.231Z,10.70
2022-11-17T22:01:12.950Z,13.38
2022-11-17T22:03:41.183Z,14.73
2022-11-17T22:06:14.488Z,11.40
2022-11-17T22:08:43.044Z,17.33
2022-11-17T22:11:13.254Z,14.07
2022-11-17T22:13:40.631Z,13.07
2022-11-17T22:16:13.469Z,10.13
2022-11-17T22:18:41.034Z,14.30
2022-11-17T22:21:08.274Z,8.73
2022-11-17T22:23:35.473Z,9.15
2022-11-17T22:26:04.594Z,14.35
2022-11-17T22:28:31.359Z,8.68
2022-11-17T22:30:58.508Z,11.25
2022-11-17T22:33:25.382Z,9.35
2022-11-17T22:35:52.111Z,11.65
2022-11-17T22:38:18.801Z,15.07
2022-11-17T22:40:45.311Z,12.90
2022-11-17T22:43:15.417Z,12.13
2022-11-17T22:45:42.573Z,8.68
2022-11-17T22:48:09.402Z,14.43
2022-11-17T22:50:36.370Z,11.48
2022-11-17T22:53:03.352Z,10.73
2022-11-17T22:55:32.736Z,6.63
2022-11-17T22:57:59.485Z,8.68
2022-11-17T23:00:26.347Z,14.70
2022-11-17T23:02:52.870Z,12.98
2022-11-17T23:05:19.585Z,9.75
2022-11-17T23:07:46.294Z,11.07
2022-11-17T23:10:13.316Z,13.68
2022-11-17T23:12:40.382Z,5.97
2022-11-17T23:15:07.969Z,10.80
2022-11-17T23:17:34.856Z,8.82
2022-11-17T23:20:01.971Z,8.88
2022-11-17T23:22:28.539Z,7.88
2022-11-17T23:24:55.075Z,8.98
2022-11-17T23:27:21.535Z,10.43
2022-11-17T23:29:48.116Z,14.90
2022-11-17T23:32:14.669Z,11.85
2022-11-17T23:34:41.296Z,7.60
2022-11-17T23:37:07.886Z,9.30
2022-11-17T23:39:34.432Z,5.78
2022-11-17T23:42:01.143Z,10.15
2022-11-17T23:44:28.268Z,7.05
2022-11-17T23:46:54.815Z,6.68
2022-11-17T23:49:21.415Z,10.57
2022-11-17T23:51:47.977Z,9.27
2022-11-17T23:54:14.667Z,6.15
2022-11-17T23:56:41.291Z,11.68
2022-11-17T23:59:08.360Z,7.88
